sensor_id;sensor_type;location;lat;lon;timestamp;P1;durP1;ratioP1;P2;durP2;ratioP2
23728;SDS011;12045;60.214;24.724;2023-09-19T00:00:58;2.25;;;1.02;;
23728;SDS011;12045;60.214;24.724;2023-09-19T00:03:25;2.38;;;1.23;;
23728;SDS011;12045;60.214;24.724;2023-09-19T00:05:57;1.35;;;1.10;;
23728;SDS011;12045;60.214;24.724;2023-09-19T00:08:25;2.45;;;1.00;;
23728;SDS011;12045;60.214;24.724;2023-09-19T00:10:53;2.53;;;1.27;;
23728;SDS011;12045;60.214;24.724;2023-09-19T00:13:21;3.95;;;1.25;;
23728;SDS011;12045;60.214;24.724;2023-09-19T00:15:50;2.47;;;1.20;;
23728;SDS011;12045;60.214;24.724;2023-09-19T00:18:18;2.55;;;1.10;;
23728;SDS011;12045;60.214;24.724;2023-09-19T00:20:51;3.08;;;1.20;;
23728;SDS011;12045;60.214;24.724;2023-09-19T00:23:19;4.25;;;1.48;;
23728;SDS011;12045;60.214;24.724;2023-09-19T00:25:47;1.70;;;1.30;;
23728;SDS011;12045;60.214;24.724;2023-09-19T00:28:15;3.70;;;1.40;;
23728;SDS011;12045;60.214;24.724;2023-09-19T00:30:44;1.40;;;1.30;;
23728;SDS011;12045;60.214;24.724;2023-09-19T00:33:20;4.47;;;1.17;;
23728;SDS011;12045;60.214;24.724;2023-09-19T00:35:52;2.25;;;1.33;;
23728;SDS011;12045;60.214;24.724;2023-09-19T00:38:21;1.58;;;1.27;;
23728;SDS011;12045;60.214;24.724;2023-09-19T00:40:54;1.95;;;1.30;;
23728;SDS011;12045;60.214;24.724;2023-09-19T00:43:26;2.17;;;1.42;;
23728;SDS011;12045;60.214;24.724;2023-09-19T00:45:55;3.97;;;1.33;;
23728;SDS011;12045;60.214;24.724;2023-09-19T00:48:24;2.00;;;1.27;;
23728;SDS011;12045;60.214;24.724;2023-09-19T00:50:57;2.22;;;1.10;;
23728;SDS011;12045;60.214;24.724;2023-09-19T00:53:28;3.38;;;1.50;;
23728;SDS011;12045;60.214;24.724;2023-09-19T00:55:58;3.05;;;1.30;;
23728;SDS011;12045;60.214;24.724;2023-09-19T00:58:26;2.90;;;1.30;;
23728;SDS011;12045;60.214;24.724;2023-09-19T01:00:59;1.80;;;1.20;;
23728;SDS011;12045;60.214;24.724;2023-09-19T01:03:27;1.42;;;1.30;;
23728;SDS011;12045;60.214;24.724;2023-09-19T01:05:55;2.20;;;1.33;;
23728;SDS011;12045;60.214;24.724;2023-09-19T01:08:23;3.78;;;1.25;;
23728;SDS011;12045;60.214;24.724;2023-09-19T01:10:59;3.80;;;1.60;;
23728;SDS011;12045;60.214;24.724;2023-09-19T01:13:56;3.50;;;1.33;;
23728;SDS011;12045;60.214;24.724;2023-09-19T01:16:32;2.70;;;1.40;;
23728;SDS011;12045;60.214;24.724;2023-09-19T01:31:09;2.15;;;1.25;;
23728;SDS011;12045;60.214;24.724;2023-09-19T01:33:58;4.28;;;1.20;;
23728;SDS011;12045;60.214;24.724;2023-09-19T01:36:28;1.20;;;1.08;;
23728;SDS011;12045;60.214;24.724;2023-09-19T01:38:57;1.67;;;1.27;;
23728;SDS011;12045;60.214;24.724;2023-09-19T01:41:34;3.05;;;1.50;;
23728;SDS011;12045;60.214;24.724;2023-09-19T01:44:34;1.30;;;1.20;;
23728;SDS011;12045;60.214;24.724;2023-09-19T01:47:26;5.10;;;1.50;;
23728;SDS011;12045;60.214;24.724;2023-09-19T01:52:54;4.18;;;1.48;;
23728;SDS011;12045;60.214;24.724;2023-09-19T01:55:27;6.38;;;1.63;;
23728;SDS011;12045;60.214;24.724;2023-09-19T02:00:43;4.53;;;1.67;;
23728;SDS011;12045;60.214;24.724;2023-09-19T02:03:14;1.30;;;1.20;;
23728;SDS011;12045;60.214;24.724;2023-09-19T02:05:50;4.20;;;1.67;;
23728;SDS011;12045;60.214;24.724;2023-09-19T02:08:20;3.13;;;1.80;;
23728;SDS011;12045;60.214;24.724;2023-09-19T02:10:50;3.25;;;1.65;;
23728;SDS011;12045;60.214;24.724;2023-09-19T02:13:20;3.72;;;1.70;;
23728;SDS011;12045;60.214;24.724;2023-09-19T02:15:48;3.55;;;1.70;;
23728;SDS011;12045;60.214;24.724;2023-09-19T02:18:17;2.10;;;1.63;;
23728;SDS011;12045;60.214;24.724;2023-09-19T02:20:45;2.00;;;1.63;;
23728;SDS011;12045;60.214;24.724;2023-09-19T02:23:13;3.53;;;2.00;;
23728;SDS011;12045;60.214;24.724;2023-09-19T02:25:42;3.50;;;2.00;;
23728;SDS011;12045;60.214;24.724;2023-09-19T02:28:10;4.15;;;2.05;;
23728;SDS011;12045;60.214;24.724;2023-09-19T02:30:38;5.93;;;2.22;;
23728;SDS011;12045;60.214;24.724;2023-09-19T02:33:06;4.25;;;2.30;;
23728;SDS011;12045;60.214;24.724;2023-09-19T02:35:35;4.18;;;2.38;;
23728;SDS011;12045;60.214;24.724;2023-09-19T02:38:03;5.15;;;2.17;;
23728;SDS011;12045;60.214;24.724;2023-09-19T02:40:33;4.72;;;2.47;;
23728;SDS011;12045;60.214;24.724;2023-09-19T02:43:03;4.40;;;2.63;;
23728;SDS011;12045;60.214;24.724;2023-09-19T02:45:32;4.55;;;2.63;;
23728;SDS011;12045;60.214;24.724;2023-09-19T02:47:59;4.00;;;2.70;;
23728;SDS011;12045;60.214;24.724;2023-09-19T02:50:27;5.18;;;3.00;;
23728;SDS011;12045;60.214;24.724;2023-09-19T02:52:55;4.57;;;3.15;;
23728;SDS011;12045;60.214;24.724;2023-09-19T02:55:23;6.43;;;2.88;;
23728;SDS011;12045;60.214;24.724;2023-09-19T02:57:53;5.20;;;2.90;;
23728;SDS011;12045;60.214;24.724;2023-09-19T03:00:21;5.80;;;3.15;;
23728;SDS011;12045;60.214;24.724;2023-09-19T03:02:50;5.45;;;3.28;;
23728;SDS011;12045;60.214;24.724;2023-09-19T03:05:21;8.65;;;3.90;;
23728;SDS011;12045;60.214;24.724;2023-09-19T03:07:50;5.35;;;3.10;;
23728;SDS011;12045;60.214;24.724;2023-09-19T03:10:18;5.85;;;3.60;;
23728;SDS011;12045;60.214;24.724;2023-09-19T03:12:47;5.72;;;3.63;;
23728;SDS011;12045;60.214;24.724;2023-09-19T03:15:16;6.97;;;3.50;;
23728;SDS011;12045;60.214;24.724;2023-09-19T03:17:46;6.03;;;3.70;;
23728;SDS011;12045;60.214;24.724;2023-09-19T03:20:15;8.40;;;4.18;;
23728;SDS011;12045;60.214;24.724;2023-09-19T03:22:45;8.52;;;4.07;;
23728;SDS011;12045;60.214;24.724;2023-09-19T03:25:13;5.22;;;3.47;;
23728;SDS011;12045;60.214;24.724;2023-09-19T03:27:43;7.22;;;4.07;;
23728;SDS011;12045;60.214;24.724;2023-09-19T03:30:10;7.55;;;4.30;;
23728;SDS011;12045;60.214;24.724;2023-09-19T03:32:44;7.57;;;4.50;;
23728;SDS011;12045;60.214;24.724;2023-09-19T03:35:13;7.82;;;4.80;;
23728;SDS011;12045;60.214;24.724;2023-09-19T03:37:41;9.18;;;4.53;;
23728;SDS011;12045;60.214;24.724;2023-09-19T03:40:10;7.85;;;4.75;;
23728;SDS011;12045;60.214;24.724;2023-09-19T03:42:39;8.70;;;5.15;;
23728;SDS011;12045;60.214;24.724;2023-09-19T03:45:08;10.77;;;5.50;;
23728;SDS011;12045;60.214;24.724;2023-09-19T03:47:39;8.60;;;5.20;;
23728;SDS011;12045;60.214;24.724;2023-09-19T03:50:07;10.73;;;5.32;;
23728;SDS011;12045;60.214;24.724;2023-09-19T03:52:38;9.98;;;5.53;;
23728;SDS011;12045;60.214;24.724;2023-09-19T03:55:06;10.27;;;5.53;;
23728;SDS011;12045;60.214;24.724;2023-09-19T03:57:33;9.82;;;5.55;;
23728;SDS011;12045;60.214;24.724;2023-09-19T04:00:02;10.30;;;5.65;;
23728;SDS011;12045;60.214;24.724;2023-09-19T04:02:32;9.32;;;5.47;;
23728;SDS011;12045;60.214;24.724;2023-09-19T04:05:00;9.20;;;5.22;;
23728;SDS011;12045;60.214;24.724;2023-09-19T04:07:28;9.30;;;5.07;;
23728;SDS011;12045;60.214;24.724;2023-09-19T04:09:56;8.27;;;5.00;;
23728;SDS011;12045;60.214;24.724;2023-09-19T04:12:23;9.90;;;4.82;;
23728;SDS011;12045;60.214;24.724;2023-09-19T04:14:51;8.30;;;4.13;;
23728;SDS011;12045;60.214;24.724;2023-09-19T04:17:18;7.35;;;4.18;;
23728;SDS011;12045;60.214;24.724;2023-09-19T04:19:46;5.93;;;3.38;;
23728;SDS011;12045;60.214;24.724;2023-09-19T04:22:13;8.07;;;3.47;;
23728;SDS011;12045;60.214;24.724;2023-09-19T04:24:42;9.85;;;3.58;;
23728;SDS011;12045;60.214;24.724;2023-09-19T04:27:11;4.47;;;3.00;;
23728;SDS011;12045;60.214;24.724;2023-09-19T04:29:42;7.70;;;3.13;;
23728;SDS011;12045;60.214;24.724;2023-09-19T04:32:09;4.72;;;2.72;;
23728;SDS011;12045;60.214;24.724;2023-09-19T04:34:37;4.03;;;2.60;;
23728;SDS011;12045;60.214;24.724;2023-09-19T04:37:05;6.00;;;2.85;;
23728;SDS011;12045;60.214;24.724;2023-09-19T04:39:33;5.40;;;2.80;;
23728;SDS011;12045;60.214;24.724;2023-09-19T04:42:01;5.38;;;2.60;;
23728;SDS011;12045;60.214;24.724;2023-09-19T04:44:30;4.00;;;2.55;;
23728;SDS011;12045;60.214;24.724;2023-09-19T04:46:57;4.50;;;2.40;;
23728;SDS011;12045;60.214;24.724;2023-09-19T04:49:27;4.53;;;2.40;;
23728;SDS011;12045;60.214;24.724;2023-09-19T04:51:54;4.30;;;2.47;;
23728;SDS011;12045;60.214;24.724;2023-09-19T04:54:22;5.40;;;2.50;;
23728;SDS011;12045;60.214;24.724;2023-09-19T04:56:50;5.45;;;2.80;;
23728;SDS011;12045;60.214;24.724;2023-09-19T04:59:17;4.97;;;2.50;;
23728;SDS011;12045;60.214;24.724;2023-09-19T05:01:45;3.78;;;2.33;;
23728;SDS011;12045;60.214;24.724;2023-09-19T05:04:13;6.53;;;2.75;;
23728;SDS011;12045;60.214;24.724;2023-09-19T05:06:41;4.45;;;2.60;;
23728;SDS011;12045;60.214;24.724;2023-09-19T05:09:12;8.10;;;3.10;;
23728;SDS011;12045;60.214;24.724;2023-09-19T05:11:40;3.38;;;2.58;;
23728;SDS011;12045;60.214;24.724;2023-09-19T05:14:07;4.35;;;2.50;;
23728;SDS011;12045;60.214;24.724;2023-09-19T05:16:35;3.95;;;2.63;;
23728;SDS011;12045;60.214;24.724;2023-09-19T05:19:02;5.60;;;2.83;;
23728;SDS011;12045;60.214;24.724;2023-09-19T05:21:30;4.55;;;2.67;;
23728;SDS011;12045;60.214;24.724;2023-09-19T05:23:58;4.28;;;2.75;;
23728;SDS011;12045;60.214;24.724;2023-09-19T05:26:26;5.38;;;3.10;;
23728;SDS011;12045;60.214;24.724;2023-09-19T05:28:53;6.18;;;3.17;;
23728;SDS011;12045;60.214;24.724;2023-09-19T05:31:21;8.35;;;3.80;;
23728;SDS011;12045;60.214;24.724;2023-09-19T05:33:50;6.68;;;3.30;;
23728;SDS011;12045;60.214;24.724;2023-09-19T05:36:18;5.65;;;2.85;;
23728;SDS011;12045;60.214;24.724;2023-09-19T05:38:45;4.55;;;3.05;;
23728;SDS011;12045;60.214;24.724;2023-09-19T05:41:15;5.85;;;3.55;;
23728;SDS011;12045;60.214;24.724;2023-09-19T05:43:44;5.88;;;3.50;;
23728;SDS011;12045;60.214;24.724;2023-09-19T05:46:12;4.30;;;3.22;;
23728;SDS011;12045;60.214;24.724;2023-09-19T05:48:39;5.82;;;3.40;;
23728;SDS011;12045;60.214;24.724;2023-09-19T05:51:08;4.43;;;3.10;;
23728;SDS011;12045;60.214;24.724;2023-09-19T05:53:36;4.82;;;3.17;;
23728;SDS011;12045;60.214;24.724;2023-09-19T05:56:05;6.07;;;3.47;;
23728;SDS011;12045;60.214;24.724;2023-09-19T05:58:32;4.60;;;3.20;;
23728;SDS011;12045;60.214;24.724;2023-09-19T06:01:00;6.03;;;3.40;;
23728;SDS011;12045;60.214;24.724;2023-09-19T06:03:28;6.07;;;3.13;;
23728;SDS011;12045;60.214;24.724;2023-09-19T06:05:57;7.97;;;3.40;;
23728;SDS011;12045;60.214;24.724;2023-09-19T06:08:25;5.72;;;3.65;;
23728;SDS011;12045;60.214;24.724;2023-09-19T06:10:53;6.85;;;3.42;;
23728;SDS011;12045;60.214;24.724;2023-09-19T06:13:21;5.35;;;3.30;;
23728;SDS011;12045;60.214;24.724;2023-09-19T06:15:49;5.88;;;3.50;;
23728;SDS011;12045;60.214;24.724;2023-09-19T06:18:17;8.35;;;3.80;;
23728;SDS011;12045;60.214;24.724;2023-09-19T06:20:47;6.93;;;3.70;;
23728;SDS011;12045;60.214;24.724;2023-09-19T06:23:16;6.85;;;3.75;;
23728;SDS011;12045;60.214;24.724;2023-09-19T06:25:52;4.75;;;3.33;;
23728;SDS011;12045;60.214;24.724;2023-09-19T06:28:28;5.75;;;3.80;;
23728;SDS011;12045;60.214;24.724;2023-09-19T06:30:55;7.35;;;3.83;;
23728;SDS011;12045;60.214;24.724;2023-09-19T06:33:24;5.63;;;4.05;;
23728;SDS011;12045;60.214;24.724;2023-09-19T06:35:51;7.05;;;4.00;;
23728;SDS011;12045;60.214;24.724;2023-09-19T06:38:24;9.63;;;3.70;;
23728;SDS011;12045;60.214;24.724;2023-09-19T06:40:52;5.60;;;3.97;;
23728;SDS011;12045;60.214;24.724;2023-09-19T06:43:21;9.00;;;4.25;;
23728;SDS011;12045;60.214;24.724;2023-09-19T06:45:49;5.38;;;3.83;;
23728;SDS011;12045;60.214;24.724;2023-09-19T06:48:18;6.65;;;4.20;;
23728;SDS011;12045;60.214;24.724;2023-09-19T06:50:48;9.15;;;4.28;;
23728;SDS011;12045;60.214;24.724;2023-09-19T06:53:15;7.13;;;3.92;;
23728;SDS011;12045;60.214;24.724;2023-09-19T06:55:44;6.45;;;4.43;;
23728;SDS011;12045;60.214;24.724;2023-09-19T06:58:13;7.28;;;4.90;;
23728;SDS011;12045;60.214;24.724;2023-09-19T07:00:40;6.53;;;4.35;;
23728;SDS011;12045;60.214;24.724;2023-09-19T07:03:08;12.07;;;4.47;;
23728;SDS011;12045;60.214;24.724;2023-09-19T07:05:39;6.53;;;4.43;;
23728;SDS011;12045;60.214;24.724;2023-09-19T07:08:08;8.43;;;4.80;;
23728;SDS011;12045;60.214;24.724;2023-09-19T07:10:42;8.02;;;4.60;;
23728;SDS011;12045;60.214;24.724;2023-09-19T07:13:16;10.55;;;5.10;;
23728;SDS011;12045;60.214;24.724;2023-09-19T07:15:44;7.22;;;4.85;;
23728;SDS011;12045;60.214;24.724;2023-09-19T07:18:17;8.15;;;5.22;;
23728;SDS011;12045;60.214;24.724;2023-09-19T07:20:45;6.93;;;4.47;;
23728;SDS011;12045;60.214;24.724;2023-09-19T07:23:17;9.63;;;5.60;;
23728;SDS011;12045;60.214;24.724;2023-09-19T07:25:45;6.75;;;4.72;;
23728;SDS011;12045;60.214;24.724;2023-09-19T07:28:13;10.43;;;5.07;;
23728;SDS011;12045;60.214;24.724;2023-09-19T07:30:42;7.95;;;4.75;;
23728;SDS011;12045;60.214;24.724;2023-09-19T07:33:09;7.72;;;4.72;;
23728;SDS011;12045;60.214;24.724;2023-09-19T07:35:38;6.97;;;5.30;;
23728;SDS011;12045;60.214;24.724;2023-09-19T07:38:07;9.77;;;5.82;;
23728;SDS011;12045;60.214;24.724;2023-09-19T07:40:36;7.80;;;5.38;;
23728;SDS011;12045;60.214;24.724;2023-09-19T07:43:04;11.80;;;5.40;;
23728;SDS011;12045;60.214;24.724;2023-09-19T07:45:32;9.13;;;5.57;;
23728;SDS011;12045;60.214;24.724;2023-09-19T07:48:01;11.27;;;6.32;;
23728;SDS011;12045;60.214;24.724;2023-09-19T07:50:33;11.00;;;7.00;;
23728;SDS011;12045;60.214;24.724;2023-09-19T07:53:04;11.93;;;6.65;;
23728;SDS011;12045;60.214;24.724;2023-09-19T07:55:32;12.48;;;7.70;;
23728;SDS011;12045;60.214;24.724;2023-09-19T07:58:01;13.23;;;7.25;;
23728;SDS011;12045;60.214;24.724;2023-09-19T08:00:31;12.38;;;7.85;;
23728;SDS011;12045;60.214;24.724;2023-09-19T08:03:01;17.95;;;8.50;;
23728;SDS011;12045;60.214;24.724;2023-09-19T08:05:44;14.88;;;8.30;;
23728;SDS011;12045;60.214;24.724;2023-09-19T08:08:12;15.60;;;8.45;;
23728;SDS011;12045;60.214;24.724;2023-09-19T08:10:42;17.10;;;9.35;;
23728;SDS011;12045;60.214;24.724;2023-09-19T08:13:14;16.60;;;9.38;;
23728;SDS011;12045;60.214;24.724;2023-09-19T08:15:44;16.75;;;9.70;;
23728;SDS011;12045;60.214;24.724;2023-09-19T08:18:26;22.20;;;9.40;;
23728;SDS011;12045;60.214;24.724;2023-09-19T08:20:57;16.23;;;9.40;;
23728;SDS011;12045;60.214;24.724;2023-09-19T08:23:27;17.02;;;8.73;;
23728;SDS011;12045;60.214;24.724;2023-09-19T08:25:56;29.58;;;10.30;;
23728;SDS011;12045;60.214;24.724;2023-09-19T08:28:24;35.15;;;10.18;;
23728;SDS011;12045;60.214;24.724;2023-09-19T08:30:52;45.28;;;11.35;;
23728;SDS011;12045;60.214;24.724;2023-09-19T08:33:23;23.70;;;10.73;;
23728;SDS011;12045;60.214;24.724;2023-09-19T08:35:51;26.10;;;10.93;;
23728;SDS011;12045;60.214;24.724;2023-09-19T08:38:19;23.85;;;11.02;;
23728;SDS011;12045;60.214;24.724;2023-09-19T08:40:48;22.55;;;11.18;;
23728;SDS011;12045;60.214;24.724;2023-09-19T08:43:16;25.30;;;11.30;;
23728;SDS011;12045;60.214;24.724;2023-09-19T08:45:44;25.92;;;10.75;;
23728;SDS011;12045;60.214;24.724;2023-09-19T08:48:27;36.58;;;10.57;;
23728;SDS011;12045;60.214;24.724;2023-09-19T08:50:59;29.42;;;11.40;;
23728;SDS011;12045;60.214;24.724;2023-09-19T08:53:34;29.90;;;10.20;;
23728;SDS011;12045;60.214;24.724;2023-09-19T08:56:18;21.08;;;10.35;;
23728;SDS011;12045;60.214;24.724;2023-09-19T08:58:48;18.60;;;9.90;;
23728;SDS011;12045;60.214;24.724;2023-09-19T09:01:29;21.00;;;9.63;;
23728;SDS011;12045;60.214;24.724;2023-09-19T09:04:00;36.28;;;11.07;;
23728;SDS011;12045;60.214;24.724;2023-09-19T09:06:30;18.90;;;9.55;;
23728;SDS011;12045;60.214;24.724;2023-09-19T09:08:59;23.73;;;10.65;;
23728;SDS011;12045;60.214;24.724;2023-09-19T09:11:28;18.67;;;10.13;;
23728;SDS011;12045;60.214;24.724;2023-09-19T09:13:55;20.55;;;10.25;;
23728;SDS011;12045;60.214;24.724;2023-09-19T09:16:24;22.17;;;10.32;;
23728;SDS011;12045;60.214;24.724;2023-09-19T09:18:53;22.77;;;10.15;;
23728;SDS011;12045;60.214;24.724;2023-09-19T09:21:22;21.52;;;10.30;;
23728;SDS011;12045;60.214;24.724;2023-09-19T09:23:52;22.13;;;9.70;;
23728;SDS011;12045;60.214;24.724;2023-09-19T09:26:42;20.70;;;10.40;;
23728;SDS011;12045;60.214;24.724;2023-09-19T09:29:14;20.48;;;10.02;;
23728;SDS011;12045;60.214;24.724;2023-09-19T09:31:48;17.90;;;10.40;;
23728;SDS011;12045;60.214;24.724;2023-09-19T09:34:16;18.50;;;10.00;;
23728;SDS011;12045;60.214;24.724;2023-09-19T09:36:44;21.15;;;9.70;;
23728;SDS011;12045;60.214;24.724;2023-09-19T09:39:29;21.85;;;10.02;;
23728;SDS011;12045;60.214;24.724;2023-09-19T09:41:59;18.00;;;9.70;;
23728;SDS011;12045;60.214;24.724;2023-09-19T09:44:26;19.52;;;9.02;;
23728;SDS011;12045;60.214;24.724;2023-09-19T09:46:59;16.85;;;9.52;;
23728;SDS011;12045;60.214;24.724;2023-09-19T09:49:49;17.60;;;9.90;;
23728;SDS011;12045;60.214;24.724;2023-09-19T09:52:22;20.75;;;10.23;;
23728;SDS011;12045;60.214;24.724;2023-09-19T09:55:01;18.88;;;9.70;;
23728;SDS011;12045;60.214;24.724;2023-09-19T09:57:34;17.83;;;9.48;;
23728;SDS011;12045;60.214;24.724;2023-09-19T10:00:02;17.95;;;9.43;;
23728;SDS011;12045;60.214;24.724;2023-09-19T10:02:39;17.25;;;9.55;;
23728;SDS011;12045;60.214;24.724;2023-09-19T10:07:49;18.65;;;10.98;;
23728;SDS011;12045;60.214;24.724;2023-09-19T10:10:42;17.58;;;11.38;;
23728;SDS011;12045;60.214;24.724;2023-09-19T10:13:10;21.30;;;10.93;;
23728;SDS011;12045;60.214;24.724;2023-09-19T10:15:44;20.85;;;11.57;;
23728;SDS011;12045;60.214;24.724;2023-09-19T10:18:20;17.77;;;10.68;;
23728;SDS011;12045;60.214;24.724;2023-09-19T10:20:49;19.88;;;10.95;;
23728;SDS011;12045;60.214;24.724;2023-09-19T10:23:19;22.23;;;10.90;;
23728;SDS011;12045;60.214;24.724;2023-09-19T10:25:54;17.67;;;10.60;;
23728;SDS011;12045;60.214;24.724;2023-09-19T10:28:22;17.35;;;10.15;;
23728;SDS011;12045;60.214;24.724;2023-09-19T10:30:50;17.10;;;10.35;;
23728;SDS011;12045;60.214;24.724;2023-09-19T10:33:20;19.17;;;10.85;;
23728;SDS011;12045;60.214;24.724;2023-09-19T10:35:54;17.63;;;10.35;;
23728;SDS011;12045;60.214;24.724;2023-09-19T10:38:27;17.20;;;10.40;;
23728;SDS011;12045;60.214;24.724;2023-09-19T10:40:56;14.50;;;9.75;;
23728;SDS011;12045;60.214;24.724;2023-09-19T10:43:29;17.00;;;10.13;;
23728;SDS011;12045;60.214;24.724;2023-09-19T10:46:03;20.25;;;10.65;;
23728;SDS011;12045;60.214;24.724;2023-09-19T10:48:34;15.57;;;10.23;;
23728;SDS011;12045;60.214;24.724;2023-09-19T10:51:15;18.10;;;11.02;;
23728;SDS011;12045;60.214;24.724;2023-09-19T10:53:47;15.57;;;9.98;;
23728;SDS011;12045;60.214;24.724;2023-09-19T10:56:24;15.35;;;10.00;;
23728;SDS011;12045;60.214;24.724;2023-09-19T10:59:09;15.93;;;10.20;;
23728;SDS011;12045;60.214;24.724;2023-09-19T11:01:44;17.20;;;10.95;;
23728;SDS011;12045;60.214;24.724;2023-09-19T11:09:45;16.17;;;9.80;;
23728;SDS011;12045;60.214;24.724;2023-09-19T11:14:58;14.50;;;9.75;;
23728;SDS011;12045;60.214;24.724;2023-09-19T11:17:30;19.13;;;10.32;;
23728;SDS011;12045;60.214;24.724;2023-09-19T11:30:40;13.50;;;9.00;;
23728;SDS011;12045;60.214;24.724;2023-09-19T11:33:16;14.85;;;9.57;;
23728;SDS011;12045;60.214;24.724;2023-09-19T11:46:23;15.32;;;9.38;;
23728;SDS011;12045;60.214;24.724;2023-09-19T11:48:51;13.60;;;8.98;;
23728;SDS011;12045;60.214;24.724;2023-09-19T11:51:22;13.02;;;9.00;;
23728;SDS011;12045;60.214;24.724;2023-09-19T11:54:11;15.15;;;9.45;;
23728;SDS011;12045;60.214;24.724;2023-09-19T11:56:45;13.20;;;9.32;;
23728;SDS011;12045;60.214;24.724;2023-09-19T12:01:57;13.27;;;8.38;;
23728;SDS011;12045;60.214;24.724;2023-09-19T12:04:38;15.30;;;9.48;;
23728;SDS011;12045;60.214;24.724;2023-09-19T12:07:14;12.50;;;8.52;;
23728;SDS011;12045;60.214;24.724;2023-09-19T12:09:45;14.20;;;9.65;;
23728;SDS011;12045;60.214;24.724;2023-09-19T12:12:25;16.08;;;9.43;;
23728;SDS011;12045;60.214;24.724;2023-09-19T12:15:00;15.13;;;9.38;;
23728;SDS011;12045;60.214;24.724;2023-09-19T12:17:40;18.48;;;9.95;;
23728;SDS011;12045;60.214;24.724;2023-09-19T12:20:12;13.73;;;9.02;;
23728;SDS011;12045;60.214;24.724;2023-09-19T12:22:40;14.20;;;9.68;;
23728;SDS011;12045;60.214;24.724;2023-09-19T12:25:11;15.80;;;10.05;;
23728;SDS011;12045;60.214;24.724;2023-09-19T12:27:43;15.77;;;9.23;;
23728;SDS011;12045;60.214;24.724;2023-09-19T12:30:14;13.40;;;9.30;;
23728;SDS011;12045;60.214;24.724;2023-09-19T12:32:53;15.30;;;9.55;;
23728;SDS011;12045;60.214;24.724;2023-09-19T12:35:29;14.15;;;9.10;;
23728;SDS011;12045;60.214;24.724;2023-09-19T12:38:02;15.68;;;9.43;;
23728;SDS011;12045;60.214;24.724;2023-09-19T12:40:31;12.88;;;9.10;;
23728;SDS011;12045;60.214;24.724;2023-09-19T12:43:01;17.13;;;9.82;;
23728;SDS011;12045;60.214;24.724;2023-09-19T12:45:32;16.17;;;10.40;;
23728;SDS011;12045;60.214;24.724;2023-09-19T12:48:21;15.52;;;9.48;;
23728;SDS011;12045;60.214;24.724;2023-09-19T12:51:05;13.30;;;9.18;;
23728;SDS011;12045;60.214;24.724;2023-09-19T12:53:40;13.60;;;9.20;;
23728;SDS011;12045;60.214;24.724;2023-09-19T12:56:14;17.35;;;10.10;;
23728;SDS011;12045;60.214;24.724;2023-09-19T12:58:49;13.82;;;9.65;;
23728;SDS011;12045;60.214;24.724;2023-09-19T13:01:17;17.67;;;9.82;;
23728;SDS011;12045;60.214;24.724;2023-09-19T13:03:45;15.80;;;10.07;;
23728;SDS011;12045;60.214;24.724;2023-09-19T13:06:13;15.35;;;10.95;;
23728;SDS011;12045;60.214;24.724;2023-09-19T13:08:44;17.60;;;10.52;;
23728;SDS011;12045;60.214;24.724;2023-09-19T13:11:16;15.63;;;9.98;;
23728;SDS011;12045;60.214;24.724;2023-09-19T13:13:49;17.73;;;10.55;;
23728;SDS011;12045;60.214;24.724;2023-09-19T13:19:44;19.67;;;11.95;;
23728;SDS011;12045;60.214;24.724;2023-09-19T13:27:49;16.90;;;10.88;;
23728;SDS011;12045;60.214;24.724;2023-09-19T13:30:25;17.08;;;10.88;;
23728;SDS011;12045;60.214;24.724;2023-09-19T13:33:04;17.27;;;11.50;;
23728;SDS011;12045;60.214;24.724;2023-09-19T13:35:40;15.98;;;11.15;;
23728;SDS011;12045;60.214;24.724;2023-09-19T13:38:08;17.30;;;11.73;;
23728;SDS011;12045;60.214;24.724;2023-09-19T13:40:41;21.33;;;12.93;;
23728;SDS011;12045;60.214;24.724;2023-09-19T13:43:09;20.33;;;12.15;;
23728;SDS011;12045;60.214;24.724;2023-09-19T13:45:38;22.20;;;12.02;;
23728;SDS011;12045;60.214;24.724;2023-09-19T13:48:09;20.08;;;12.05;;
23728;SDS011;12045;60.214;24.724;2023-09-19T13:50:38;21.02;;;12.80;;
23728;SDS011;12045;60.214;24.724;2023-09-19T13:53:09;23.70;;;13.15;;
23728;SDS011;12045;60.214;24.724;2023-09-19T13:55:37;22.65;;;13.52;;
23728;SDS011;12045;60.214;24.724;2023-09-19T13:58:04;23.83;;;14.23;;
23728;SDS011;12045;60.214;24.724;2023-09-19T14:00:33;24.60;;;14.18;;
23728;SDS011;12045;60.214;24.724;2023-09-19T14:03:01;21.10;;;13.57;;
23728;SDS011;12045;60.214;24.724;2023-09-19T14:05:31;21.90;;;13.52;;
23728;SDS011;12045;60.214;24.724;2023-09-19T14:07:59;21.20;;;13.38;;
23728;SDS011;12045;60.214;24.724;2023-09-19T14:10:28;24.08;;;13.85;;
23728;SDS011;12045;60.214;24.724;2023-09-19T14:12:58;26.83;;;14.45;;
23728;SDS011;12045;60.214;24.724;2023-09-19T14:15:26;26.38;;;14.07;;
23728;SDS011;12045;60.214;24.724;2023-09-19T14:17:58;26.60;;;14.65;;
23728;SDS011;12045;60.214;24.724;2023-09-19T14:20:27;28.25;;;16.17;;
23728;SDS011;12045;60.214;24.724;2023-09-19T14:22:56;28.65;;;16.02;;
23728;SDS011;12045;60.214;24.724;2023-09-19T14:25:25;31.13;;;16.65;;
23728;SDS011;12045;60.214;24.724;2023-09-19T14:27:53;29.65;;;17.65;;
23728;SDS011;12045;60.214;24.724;2023-09-19T14:30:22;30.45;;;18.35;;
23728;SDS011;12045;60.214;24.724;2023-09-19T14:32:50;33.45;;;18.92;;
23728;SDS011;12045;60.214;24.724;2023-09-19T14:35:18;33.50;;;19.38;;
23728;SDS011;12045;60.214;24.724;2023-09-19T14:37:46;30.08;;;17.75;;
23728;SDS011;12045;60.214;24.724;2023-09-19T14:40:14;38.08;;;20.63;;
23728;SDS011;12045;60.214;24.724;2023-09-19T14:42:44;38.97;;;21.30;;
23728;SDS011;12045;60.214;24.724;2023-09-19T14:45:12;38.55;;;21.05;;
23728;SDS011;12045;60.214;24.724;2023-09-19T14:47:41;42.75;;;21.48;;
23728;SDS011;12045;60.214;24.724;2023-09-19T14:50:09;27.98;;;15.80;;
23728;SDS011;12045;60.214;24.724;2023-09-19T14:52:38;43.88;;;20.90;;
23728;SDS011;12045;60.214;24.724;2023-09-19T14:55:07;35.95;;;19.77;;
23728;SDS011;12045;60.214;24.724;2023-09-19T14:57:41;42.40;;;19.33;;
23728;SDS011;12045;60.214;24.724;2023-09-19T15:00:12;34.90;;;17.83;;
23728;SDS011;12045;60.214;24.724;2023-09-19T15:02:40;38.88;;;20.40;;
23728;SDS011;12045;60.214;24.724;2023-09-19T15:05:08;29.92;;;17.77;;
23728;SDS011;12045;60.214;24.724;2023-09-19T15:07:36;37.88;;;17.30;;
23728;SDS011;12045;60.214;24.724;2023-09-19T15:10:05;34.10;;;17.80;;
23728;SDS011;12045;60.214;24.724;2023-09-19T15:12:36;32.80;;;15.88;;
23728;SDS011;12045;60.214;24.724;2023-09-19T15:15:07;29.70;;;15.23;;
23728;SDS011;12045;60.214;24.724;2023-09-19T15:17:35;30.52;;;14.27;;
23728;SDS011;12045;60.214;24.724;2023-09-19T15:20:04;28.45;;;13.68;;
23728;SDS011;12045;60.214;24.724;2023-09-19T15:22:33;24.33;;;13.07;;
23728;SDS011;12045;60.214;24.724;2023-09-19T15:25:04;25.08;;;12.52;;
23728;SDS011;12045;60.214;24.724;2023-09-19T15:27:32;20.90;;;10.55;;
23728;SDS011;12045;60.214;24.724;2023-09-19T15:30:00;24.25;;;12.95;;
23728;SDS011;12045;60.214;24.724;2023-09-19T15:32:29;29.52;;;13.43;;
23728;SDS011;12045;60.214;24.724;2023-09-19T15:34:57;27.17;;;14.57;;
23728;SDS011;12045;60.214;24.724;2023-09-19T15:37:26;25.17;;;13.93;;
23728;SDS011;12045;60.214;24.724;2023-09-19T15:39:54;30.00;;;15.13;;
23728;SDS011;12045;60.214;24.724;2023-09-19T15:42:21;34.13;;;15.93;;
23728;SDS011;12045;60.214;24.724;2023-09-19T15:44:49;33.53;;;16.83;;